sensor_id;sensor_type;location;lat;lon;timestamp;temperature;humidity
12893;DHT22;6514;48.606;9.222;2023-04-15T00:01:01;3.20;99.90
12893;DHT22;6514;48.606;9.222;2023-04-15T00:03:28;3.30;99.90
12893;DHT22;6514;48.606;9.222;2023-04-15T00:05:55;3.30;99.90
12893;DHT22;6514;48.606;9.222;2023-04-15T00:08:22;3.20;99.90
12893;DHT22;6514;48.606;9.222;2023-04-15T00:10:48;3.10;99.90
12893;DHT22;6514;48.606;9.222;2023-04-15T00:13:15;3.00;99.90
12893;DHT22;6514;48.606;9.222;2023-04-15T00:15:42;3.00;99.90
12893;DHT22;6514;48.606;9.222;2023-04-15T00:18:10;2.80;99.90
12893;DHT22;6514;48.606;9.222;2023-04-15T00:20:37;2.80;99.90
12893;DHT22;6514;48.606;9.222;2023-04-15T00:23:04;2.70;99.90
12893;DHT22;6514;48.606;9.222;2023-04-15T00:25:32;2.60;99.90
12893;DHT22;6514;48.606;9.222;2023-04-15T00:27:59;2.60;99.90
12893;DHT22;6514;48.606;9.222;2023-04-15T00:30:26;2.50;99.90
12893;DHT22;6514;48.606;9.222;2023-04-15T00:32:53;2.50;99.90
12893;DHT22;6514;48.606;9.222;2023-04-15T00:35:21;2.40;99.90
12893;DHT22;6514;48.606;9.222;2023-04-15T00:37:48;2.40;99.90
12893;DHT22;6514;48.606;9.222;2023-04-15T00:40:18;1.90;99.90
12893;DHT22;6514;48.606;9.222;2023-04-15T00:42:45;2.20;99.90
12893;DHT22;6514;48.606;9.222;2023-04-15T00:45:12;2.20;99.90
12893;DHT22;6514;48.606;9.222;2023-04-15T00:47:40;2.10;99.90
12893;DHT22;6514;48.606;9.222;2023-04-15T00:50:08;2.10;99.90
12893;DHT22;6514;48.606;9.222;2023-04-15T00:52:36;2.00;99.90
12893;DHT22;6514;48.606;9.222;2023-04-15T00:55:05;1.90;99.90
12893;DHT22;6514;48.606;9.222;2023-04-15T00:57:32;1.90;99.90
12893;DHT22;6514;48.606;9.222;2023-04-15T00:59:59;1.80;99.90
12893;DHT22;6514;48.606;9.222;2023-04-15T01:02:27;1.80;99.90
12893;DHT22;6514;48.606;9.222;2023-04-15T01:04:53;1.70;99.90
12893;DHT22;6514;48.606;9.222;2023-04-15T01:07:22;1.70;99.90
12893;DHT22;6514;48.606;9.222;2023-04-15T01:09:50;1.70;99.90
12893;DHT22;6514;48.606;9.222;2023-04-15T01:12:19;1.70;99.90
12893;DHT22;6514;48.606;9.222;2023-04-15T01:14:46;1.70;99.90
12893;DHT22;6514;48.606;9.222;2023-04-15T01:17:13;1.60;99.90
12893;DHT22;6514;48.606;9.222;2023-04-15T01:19:39;1.60;99.90
12893;DHT22;6514;48.606;9.222;2023-04-15T01:22:06;1.60;99.90
12893;DHT22;6514;48.606;9.222;2023-04-15T01:24:35;1.60;99.90
12893;DHT22;6514;48.606;9.222;2023-04-15T01:27:04;1.70;99.90
12893;DHT22;6514;48.606;9.222;2023-04-15T01:29:34;1.60;99.90
12893;DHT22;6514;48.606;9.222;2023-04-15T01:32:01;1.60;99.90
12893;DHT22;6514;48.606;9.222;2023-04-15T01:34:29;1.60;99.90
12893;DHT22;6514;48.606;9.222;2023-04-15T01:36:55;1.60;99.90
12893;DHT22;6514;48.606;9.222;2023-04-15T01:39:22;1.60;99.90
12893;DHT22;6514;48.606;9.222;2023-04-15T01:41:49;1.60;99.90
12893;DHT22;6514;48.606;9.222;2023-04-15T01:44:18;1.60;99.90
12893;DHT22;6514;48.606;9.222;2023-04-15T01:46:44;1.60;99.90
12893;DHT22;6514;48.606;9.222;2023-04-15T01:49:12;1.50;99.90
12893;DHT22;6514;48.606;9.222;2023-04-15T01:51:39;1.50;99.90
12893;DHT22;6514;48.606;9.222;2023-04-15T01:54:06;1.40;99.90
12893;DHT22;6514;48.606;9.222;2023-04-15T01:56:33;1.50;99.90
12893;DHT22;6514;48.606;9.222;2023-04-15T01:59:00;1.50;99.90
12893;DHT22;6514;48.606;9.222;2023-04-15T02:01:29;1.50;99.90
12893;DHT22;6514;48.606;9.222;2023-04-15T02:03:56;1.60;99.90
12893;DHT22;6514;48.606;9.222;2023-04-15T02:06:23;1.60;99.90
12893;DHT22;6514;48.606;9.222;2023-04-15T02:08:50;1.60;99.90
12893;DHT22;6514;48.606;9.222;2023-04-15T02:11:17;1.60;99.90
12893;DHT22;6514;48.606;9.222;2023-04-15T02:13:44;1.70;99.90
12893;DHT22;6514;48.606;9.222;2023-04-15T02:16:17;1.70;99.90
12893;DHT22;6514;48.606;9.222;2023-04-15T02:18:46;1.70;99.90
12893;DHT22;6514;48.606;9.222;2023-04-15T02:21:13;1.70;99.90
12893;DHT22;6514;48.606;9.222;2023-04-15T02:23:40;1.60;99.90
12893;DHT22;6514;48.606;9.222;2023-04-15T02:26:06;1.70;99.90
12893;DHT22;6514;48.606;9.222;2023-04-15T02:28:33;1.70;99.90
12893;DHT22;6514;48.606;9.222;2023-04-15T02:31:04;1.70;99.90
12893;DHT22;6514;48.606;9.222;2023-04-15T02:33:31;1.60;99.90
12893;DHT22;6514;48.606;9.222;2023-04-15T02:35:59;1.60;99.90
12893;DHT22;6514;48.606;9.222;2023-04-15T02:38:26;1.50;99.90
12893;DHT22;6514;48.606;9.222;2023-04-15T02:40:53;1.50;99.90
12893;DHT22;6514;48.606;9.222;2023-04-15T02:43:20;1.40;99.90
12893;DHT22;6514;48.606;9.222;2023-04-15T02:45:47;1.40;99.90
12893;DHT22;6514;48.606;9.222;2023-04-15T02:48:16;1.40;99.90
12893;DHT22;6514;48.606;9.222;2023-04-15T02:50:45;1.30;99.90
12893;DHT22;6514;48.606;9.222;2023-04-15T02:53:13;1.30;99.90
12893;DHT22;6514;48.606;9.222;2023-04-15T02:55:40;1.20;99.90
12893;DHT22;6514;48.606;9.222;2023-04-15T02:58:07;1.20;99.90
12893;DHT22;6514;48.606;9.222;2023-04-15T03:00:34;1.10;99.90
12893;DHT22;6514;48.606;9.222;2023-04-15T03:03:02;1.10;99.90
12893;DHT22;6514;48.606;9.222;2023-04-15T03:05:29;1.00;99.90
12893;DHT22;6514;48.606;9.222;2023-04-15T03:07:56;1.00;99.90
12893;DHT22;6514;48.606;9.222;2023-04-15T03:10:24;1.10;99.90
12893;DHT22;6514;48.606;9.222;2023-04-15T03:12:51;1.10;99.90
12893;DHT22;6514;48.606;9.222;2023-04-15T03:15:18;1.10;99.90
12893;DHT22;6514;48.606;9.222;2023-04-15T03:17:46;1.10;99.90
12893;DHT22;6514;48.606;9.222;2023-04-15T03:20:14;1.10;99.90
12893;DHT22;6514;48.606;9.222;2023-04-15T03:22:41;1.10;99.90
12893;DHT22;6514;48.606;9.222;2023-04-15T03:25:09;1.10;99.90
12893;DHT22;6514;48.606;9.222;2023-04-15T03:27:37;1.10;99.90
12893;DHT22;6514;48.606;9.222;2023-04-15T03:30:05;1.10;99.90
12893;DHT22;6514;48.606;9.222;2023-04-15T03:32:33;1.10;99.90
12893;DHT22;6514;48.606;9.222;2023-04-15T03:35:00;1.10;99.90
12893;DHT22;6514;48.606;9.222;2023-04-15T03:37:28;1.00;99.90
12893;DHT22;6514;48.606;9.222;2023-04-15T03:39:55;1.00;99.90
12893;DHT22;6514;48.606;9.222;2023-04-15T03:42:22;1.00;99.90
12893;DHT22;6514;48.606;9.222;2023-04-15T03:44:50;1.00;99.90
12893;DHT22;6514;48.606;9.222;2023-04-15T03:47:19;0.90;99.90
12893;DHT22;6514;48.606;9.222;2023-04-15T03:49:46;0.90;99.90
12893;DHT22;6514;48.606;9.222;2023-04-15T03:52:13;0.90;99.90
12893;DHT22;6514;48.606;9.222;2023-04-15T03:54:40;0.80;99.90
12893;DHT22;6514;48.606;9.222;2023-04-15T03:57:07;0.90;99.90
12893;DHT22;6514;48.606;9.222;2023-04-15T03:59:35;0.90;99.90
12893;DHT22;6514;48.606;9.222;2023-04-15T04:02:04;0.90;99.90
12893;DHT22;6514;48.606;9.222;2023-04-15T04:04:31;1.00;99.90
12893;DHT22;6514;48.606;9.222;2023-04-15T04:06:58;1.00;99.90
12893;DHT22;6514;48.606;9.222;2023-04-15T04:09:26;1.00;99.90
12893;DHT22;6514;48.606;9.222;2023-04-15T04:11:54;0.90;99.90
12893;DHT22;6514;48.606;9.222;2023-04-15T04:14:21;1.00;99.90
12893;DHT22;6514;48.606;9.222;2023-04-15T04:16:53;0.90;99.90
12893;DHT22;6514;48.606;9.222;2023-04-15T04:19:22;0.80;99.90
12893;DHT22;6514;48.606;9.222;2023-04-15T04:21:50;0.80;99.90
12893;DHT22;6514;48.606;9.222;2023-04-15T04:24:17;0.70;99.90
12893;DHT22;6514;48.606;9.222;2023-04-15T04:26:44;0.80;99.90
12893;DHT22;6514;48.606;9.222;2023-04-15T04:29:11;0.70;99.90
12893;DHT22;6514;48.606;9.222;2023-04-15T04:31:38;0.70;99.90
12893;DHT22;6514;48.606;9.222;2023-04-15T04:34:05;0.80;99.90
12893;DHT22;6514;48.606;9.222;2023-04-15T04:36:37;0.80;99.90
12893;DHT22;6514;48.606;9.222;2023-04-15T04:39:05;0.80;99.90
12893;DHT22;6514;48.606;9.222;2023-04-15T04:41:32;0.70;99.90
12893;DHT22;6514;48.606;9.222;2023-04-15T04:43:59;0.70;99.90
12893;DHT22;6514;48.606;9.222;2023-04-15T04:46:27;0.70;99.90
12893;DHT22;6514;48.606;9.222;2023-04-15T04:48:54;0.70;99.90
12893;DHT22;6514;48.606;9.222;2023-04-15T04:51:21;0.80;99.90
12893;DHT22;6514;48.606;9.222;2023-04-15T04:53:49;0.80;99.90
12893;DHT22;6514;48.606;9.222;2023-04-15T04:56:16;0.80;99.90
12893;DHT22;6514;48.606;9.222;2023-04-15T04:58:47;0.80;99.90
12893;DHT22;6514;48.606;9.222;2023-04-15T05:01:14;0.90;99.90
12893;DHT22;6514;48.606;9.222;2023-04-15T05:03:41;0.80;99.90
12893;DHT22;6514;48.606;9.222;2023-04-15T05:06:08;0.80;99.90
12893;DHT22;6514;48.606;9.222;2023-04-15T05:08:36;0.90;99.90
12893;DHT22;6514;48.606;9.222;2023-04-15T05:11:07;0.90;99.90
12893;DHT22;6514;48.606;9.222;2023-04-15T05:13:34;0.90;99.90
12893;DHT22;6514;48.606;9.222;2023-04-15T05:16:03;0.90;99.90
12893;DHT22;6514;48.606;9.222;2023-04-15T05:18:31;1.00;99.90
12893;DHT22;6514;48.606;9.222;2023-04-15T05:20:58;1.00;99.90
12893;DHT22;6514;48.606;9.222;2023-04-15T05:23:26;1.10;99.90
12893;DHT22;6514;48.606;9.222;2023-04-15T05:25:53;1.10;99.90
12893;DHT22;6514;48.606;9.222;2023-04-15T05:28:22;1.20;99.90
12893;DHT22;6514;48.606;9.222;2023-04-15T05:30:49;1.30;99.90
12893;DHT22;6514;48.606;9.222;2023-04-15T05:33:16;1.40;99.90
12893;DHT22;6514;48.606;9.222;2023-04-15T05:35:43;1.50;99.90
12893;DHT22;6514;48.606;9.222;2023-04-15T05:38:10;1.60;99.90
12893;DHT22;6514;48.606;9.222;2023-04-15T05:40:38;1.70;99.90
12893;DHT22;6514;48.606;9.222;2023-04-15T05:43:06;1.80;99.90
12893;DHT22;6514;48.606;9.222;2023-04-15T05:45:35;1.90;99.90
12893;DHT22;6514;48.606;9.222;2023-04-15T05:48:03;2.00;99.90
12893;DHT22;6514;48.606;9.222;2023-04-15T05:50:30;2.00;99.90
12893;DHT22;6514;48.606;9.222;2023-04-15T05:52:58;2.10;99.90
12893;DHT22;6514;48.606;9.222;2023-04-15T05:55:26;2.20;99.90
12893;DHT22;6514;48.606;9.222;2023-04-15T05:57:53;2.40;99.90
12893;DHT22;6514;48.606;9.222;2023-04-15T06:00:20;2.60;99.90
12893;DHT22;6514;48.606;9.222;2023-04-15T06:02:49;2.80;99.90
12893;DHT22;6514;48.606;9.222;2023-04-15T06:05:16;3.00;99.90
12893;DHT22;6514;48.606;9.222;2023-04-15T06:07:43;3.20;99.90
12893;DHT22;6514;48.606;9.222;2023-04-15T06:10:11;3.40;99.90
12893;DHT22;6514;48.606;9.222;2023-04-15T06:12:37;3.60;99.90
12893;DHT22;6514;48.606;9.222;2023-04-15T06:15:05;3.80;99.90
12893;DHT22;6514;48.606;9.222;2023-04-15T06:17:34;4.10;99.90
12893;DHT22;6514;48.606;9.222;2023-04-15T06:20:03;4.30;99.90
12893;DHT22;6514;48.606;9.222;2023-04-15T06:22:30;4.50;99.90
12893;DHT22;6514;48.606;9.222;2023-04-15T06:24:57;4.60;99.90
12893;DHT22;6514;48.606;9.222;2023-04-15T06:27:24;4.70;99.90
12893;DHT22;6514;48.606;9.222;2023-04-15T06:29:51;4.80;99.90
12893;DHT22;6514;48.606;9.222;2023-04-15T06:32:19;4.90;99.90
12893;DHT22;6514;48.606;9.222;2023-04-15T06:34:47;5.00;99.90
12893;DHT22;6514;48.606;9.222;2023-04-15T06:37:17;5.20;99.90
12893;DHT22;6514;48.606;9.222;2023-04-15T06:39:44;5.50;99.90
12893;DHT22;6514;48.606;9.222;2023-04-15T06:42:11;5.60;99.90
12893;DHT22;6514;48.606;9.222;2023-04-15T06:44:39;5.80;99.90
12893;DHT22;6514;48.606;9.222;2023-04-15T06:47:06;6.00;99.90
12893;DHT22;6514;48.606;9.222;2023-04-15T06:49:33;6.10;99.90
12893;DHT22;6514;48.606;9.222;2023-04-15T06:52:01;6.20;99.90
12893;DHT22;6514;48.606;9.222;2023-04-15T06:54:31;6.30;99.90
12893;DHT22;6514;48.606;9.222;2023-04-15T06:56:57;6.60;99.90
12893;DHT22;6514;48.606;9.222;2023-04-15T06:59:24;6.90;99.90
12893;DHT22;6514;48.606;9.222;2023-04-15T07:01:51;7.10;99.90
12893;DHT22;6514;48.606;9.222;2023-04-15T07:04:18;7.50;99.90
12893;DHT22;6514;48.606;9.222;2023-04-15T07:06:45;7.60;99.90
12893;DHT22;6514;48.606;9.222;2023-04-15T07:09:12;7.90;99.90
12893;DHT22;6514;48.606;9.222;2023-04-15T07:11:41;8.20;99.90
12893;DHT22;6514;48.606;9.222;2023-04-15T07:14:08;8.30;99.90
12893;DHT22;6514;48.606;9.222;2023-04-15T07:16:34;8.40;99.90
12893;DHT22;6514;48.606;9.222;2023-04-15T07:19:01;8.40;99.90
12893;DHT22;6514;48.606;9.222;2023-04-15T07:21:28;8.20;99.90
12893;DHT22;6514;48.606;9.222;2023-04-15T07:23:55;8.10;99.90
12893;DHT22;6514;48.606;9.222;2023-04-15T07:26:23;8.20;99.90
12893;DHT22;6514;48.606;9.222;2023-04-15T07:28:51;8.20;99.90
12893;DHT22;6514;48.606;9.222;2023-04-15T07:31:21;8.20;99.90
12893;DHT22;6514;48.606;9.222;2023-04-15T07:33:48;8.20;99.90
12893;DHT22;6514;48.606;9.222;2023-04-15T07:36:15;8.40;99.90
12893;DHT22;6514;48.606;9.222;2023-04-15T07:38:42;8.60;99.90
12893;DHT22;6514;48.606;9.222;2023-04-15T07:41:08;9.00;99.90
12893;DHT22;6514;48.606;9.222;2023-04-15T07:43:36;9.30;99.90
12893;DHT22;6514;48.606;9.222;2023-04-15T07:46:04;9.70;99.90
12893;DHT22;6514;48.606;9.222;2023-04-15T07:48:31;10.10;99.90
12893;DHT22;6514;48.606;9.222;2023-04-15T07:51:01;10.60;99.90
12893;DHT22;6514;48.606;9.222;2023-04-15T07:53:28;11.00;99.90
12893;DHT22;6514;48.606;9.222;2023-04-15T07:55:55;11.40;99.90
12893;DHT22;6514;48.606;9.222;2023-04-15T07:58:22;11.70;99.90
12893;DHT22;6514;48.606;9.222;2023-04-15T08:00:49;12.10;99.90
12893;DHT22;6514;48.606;9.222;2023-04-15T08:03:17;12.20;99.90
12893;DHT22;6514;48.606;9.222;2023-04-15T08:05:44;12.30;99.90
12893;DHT22;6514;48.606;9.222;2023-04-15T08:08:11;12.10;99.90
12893;DHT22;6514;48.606;9.222;2023-04-15T08:10:38;12.00;99.90
12893;DHT22;6514;48.606;9.222;2023-04-15T08:13:05;12.00;99.90
12893;DHT22;6514;48.606;9.222;2023-04-15T08:15:33;11.90;99.90
12893;DHT22;6514;48.606;9.222;2023-04-15T08:18:00;12.00;99.90
12893;DHT22;6514;48.606;9.222;2023-04-15T08:20:28;12.20;99.90
12893;DHT22;6514;48.606;9.222;2023-04-15T08:22:55;12.50;99.90
12893;DHT22;6514;48.606;9.222;2023-04-15T08:25:22;13.00;99.90
12893;DHT22;6514;48.606;9.222;2023-04-15T08:27:49;13.30;99.90
12893;DHT22;6514;48.606;9.222;2023-04-15T08:30:17;13.50;99.90
12893;DHT22;6514;48.606;9.222;2023-04-15T08:32:44;13.80;99.90
12893;DHT22;6514;48.606;9.222;2023-04-15T08:35:11;14.10;99.90
12893;DHT22;6514;48.606;9.222;2023-04-15T08:37:40;14.50;99.90
12893;DHT22;6514;48.606;9.222;2023-04-15T08:40:08;15.00;99.90
12893;DHT22;6514;48.606;9.222;2023-04-15T08:42:40;15.40;99.90
12893;DHT22;6514;48.606;9.222;2023-04-15T08:45:08;15.80;99.90
12893;DHT22;6514;48.606;9.222;2023-04-15T08:47:37;16.30;99.90
12893;DHT22;6514;48.606;9.222;2023-04-15T08:50:05;16.50;99.90
12893;DHT22;6514;48.606;9.222;2023-04-15T08:52:34;16.80;99.90
12893;DHT22;6514;48.606;9.222;2023-04-15T08:55:03;17.00;99.90
12893;DHT22;6514;48.606;9.222;2023-04-15T08:57:32;17.00;99.90
12893;DHT22;6514;48.606;9.222;2023-04-15T09:00:01;17.30;99.90
12893;DHT22;6514;48.606;9.222;2023-04-15T09:02:28;17.50;99.90
12893;DHT22;6514;48.606;9.222;2023-04-15T09:04:55;18.00;99.90
12893;DHT22;6514;48.606;9.222;2023-04-15T09:07:22;18.50;99.90
12893;DHT22;6514;48.606;9.222;2023-04-15T09:09:49;18.90;99.90
12893;DHT22;6514;48.606;9.222;2023-04-15T09:12:18;18.70;99.90
12893;DHT22;6514;48.606;9.222;2023-04-15T09:14:45;18.70;99.90
12893;DHT22;6514;48.606;9.222;2023-04-15T09:17:12;18.50;99.90
12893;DHT22;6514;48.606;9.222;2023-04-15T09:19:44;18.50;99.90
12893;DHT22;6514;48.606;9.222;2023-04-15T09:22:11;18.10;99.90
12893;DHT22;6514;48.606;9.222;2023-04-15T09:24:39;17.90;99.90
12893;DHT22;6514;48.606;9.222;2023-04-15T09:27:07;17.80;99.90
12893;DHT22;6514;48.606;9.222;2023-04-15T09:29:36;18.00;99.90
12893;DHT22;6514;48.606;9.222;2023-04-15T09:32:10;18.20;99.90
12893;DHT22;6514;48.606;9.222;2023-04-15T09:34:37;18.60;99.90
12893;DHT22;6514;48.606;9.222;2023-04-15T09:37:04;19.30;99.90
12893;DHT22;6514;48.606;9.222;2023-04-15T09:39:48;19.60;99.90
12893;DHT22;6514;48.606;9.222;2023-04-15T09:42:15;19.80;99.90
12893;DHT22;6514;48.606;9.222;2023-04-15T09:44:50;19.80;99.90
12893;DHT22;6514;48.606;9.222;2023-04-15T09:47:27;19.90;99.90
12893;DHT22;6514;48.606;9.222;2023-04-15T09:49:55;20.10;99.90
12893;DHT22;6514;48.606;9.222;2023-04-15T09:52:22;20.80;99.90
12893;DHT22;6514;48.606;9.222;2023-04-15T09:54:52;21.30;99.90
12893;DHT22;6514;48.606;9.222;2023-04-15T09:57:19;21.20;99.90
12893;DHT22;6514;48.606;9.222;2023-04-15T09:59:46;21.40;99.90
12893;DHT22;6514;48.606;9.222;2023-04-15T10:02:15;21.30;99.90
12893;DHT22;6514;48.606;9.222;2023-04-15T10:04:44;20.80;99.90
12893;DHT22;6514;48.606;9.222;2023-04-15T10:07:14;20.30;99.90
12893;DHT22;6514;48.606;9.222;2023-04-15T10:09:44;20.20;98.40
12893;DHT22;6514;48.606;9.222;2023-04-15T10:12:11;19.90;99.90
12893;DHT22;6514;48.606;9.222;2023-04-15T10:14:39;19.30;99.90
12893;DHT22;6514;48.606;9.222;2023-04-15T10:17:10;18.80;99.90
12893;DHT22;6514;48.606;9.222;2023-04-15T10:19:39;18.10;99.90
12893;DHT22;6514;48.606;9.222;2023-04-15T10:22:07;17.60;99.90
12893;DHT22;6514;48.606;9.222;2023-04-15T10:24:34;17.20;99.90
12893;DHT22;6514;48.606;9.222;2023-04-15T10:27:03;16.90;99.90
12893;DHT22;6514;48.606;9.222;2023-04-15T10:29:31;16.50;99.90
12893;DHT22;6514;48.606;9.222;2023-04-15T10:31:59;16.20;99.90
12893;DHT22;6514;48.606;9.222;2023-04-15T10:34:26;16.00;99.90
12893;DHT22;6514;48.606;9.222;2023-04-15T10:36:56;15.90;99.90
12893;DHT22;6514;48.606;9.222;2023-04-15T10:39:39;15.80;99.90
12893;DHT22;6514;48.606;9.222;2023-04-15T10:42:08;15.80;99.90
12893;DHT22;6514;48.606;9.222;2023-04-15T10:44:36;15.60;99.90
12893;DHT22;6514;48.606;9.222;2023-04-15T10:47:10;15.50;99.90
12893;DHT22;6514;48.606;9.222;2023-04-15T10:49:46;15.30;99.90
12893;DHT22;6514;48.606;9.222;2023-04-15T10:52:15;14.90;99.90
12893;DHT22;6514;48.606;9.222;2023-04-15T10:54:43;14.60;99.90
12893;DHT22;6514;48.606;9.222;2023-04-15T10:57:15;14.40;99.90
12893;DHT22;6514;48.606;9.222;2023-04-15T11:00:08;14.40;99.90
12893;DHT22;6514;48.606;9.222;2023-04-15T11:02:40;14.40;99.90
12893;DHT22;6514;48.606;9.222;2023-04-15T11:05:07;14.50;99.90
12893;DHT22;6514;48.606;9.222;2023-04-15T11:07:41;14.90;99.90
12893;DHT22;6514;48.606;9.222;2023-04-15T11:10:49;15.50;99.90
12893;DHT22;6514;48.606;9.222;2023-04-15T11:13:24;16.20;99.90
12893;DHT22;6514;48.606;9.222;2023-04-15T11:15:56;16.80;99.90
12893;DHT22;6514;48.606;9.222;2023-04-15T11:18:25;17.50;99.90
12893;DHT22;6514;48.606;9.222;2023-04-15T11:20:54;18.00;99.90
12893;DHT22;6514;48.606;9.222;2023-04-15T11:23:35;18.50;99.90
12893;DHT22;6514;48.606;9.222;2023-04-15T11:26:04;18.90;99.90
12893;DHT22;6514;48.606;9.222;2023-04-15T11:28:34;18.90;99.90
12893;DHT22;6514;48.606;9.222;2023-04-15T11:31:08;19.30;99.90
12893;DHT22;6514;48.606;9.222;2023-04-15T11:33:36;20.00;99.90
12893;DHT22;6514;48.606;9.222;2023-04-15T11:36:03;20.50;99.90
12893;DHT22;6514;48.606;9.222;2023-04-15T11:38:33;20.80;99.90
12893;DHT22;6514;48.606;9.222;2023-04-15T11:41:00;21.20;99.90
12893;DHT22;6514;48.606;9.222;2023-04-15T11:43:31;21.20;99.90
12893;DHT22;6514;48.606;9.222;2023-04-15T11:46:00;21.20;99.90
12893;DHT22;6514;48.606;9.222;2023-04-15T11:48:30;20.50;99.90
12893;DHT22;6514;48.606;9.222;2023-04-15T11:51:00;19.90;99.90
12893;DHT22;6514;48.606;9.222;2023-04-15T11:53:37;19.00;99.90
12893;DHT22;6514;48.606;9.222;2023-04-15T11:56:06;18.30;99.90
12893;DHT22;6514;48.606;9.222;2023-04-15T11:58:34;17.90;99.90
12893;DHT22;6514;48.606;9.222;2023-04-15T12:01:03;17.40;99.90
12893;DHT22;6514;48.606;9.222;2023-04-15T12:03:36;17.40;99.90
12893;DHT22;6514;48.606;9.222;2023-04-15T12:06:24;17.50;99.90
12893;DHT22;6514;48.606;9.222;2023-04-15T12:09:09;17.70;99.90
12893;DHT22;6514;48.606;9.222;2023-04-15T12:11:39;18.00;99.90
12893;DHT22;6514;48.606;9.222;2023-04-15T12:14:11;18.40;99.90
12893;DHT22;6514;48.606;9.222;2023-04-15T12:16:40;18.60;99.90
12893;DHT22;6514;48.606;9.222;2023-04-15T12:19:09;18.60;99.90
12893;DHT22;6514;48.606;9.222;2023-04-15T12:21:39;18.40;99.90
12893;DHT22;6514;48.606;9.222;2023-04-15T12:24:09;18.00;99.90
12893;DHT22;6514;48.606;9.222;2023-04-15T12:26:42;17.30;99.90
12893;DHT22;6514;48.606;9.222;2023-04-15T12:29:10;16.90;99.90
12893;DHT22;6514;48.606;9.222;2023-04-15T12:31:46;16.60;99.90
12893;DHT22;6514;48.606;9.222;2023-04-15T12:34:14;16.50;99.90
12893;DHT22;6514;48.606;9.222;2023-04-15T12:36:41;16.40;99.90
12893;DHT22;6514;48.606;9.222;2023-04-15T12:39:09;16.60;99.90
12893;DHT22;6514;48.606;9.222;2023-04-15T12:41:36;16.90;99.90
12893;DHT22;6514;48.606;9.222;2023-04-15T12:44:03;16.90;99.90
12893;DHT22;6514;48.606;9.222;2023-04-15T12:46:30;16.60;99.90
12893;DHT22;6514;48.606;9.222;2023-04-15T12:48:57;16.30;99.90
12893;DHT22;6514;48.606;9.222;2023-04-15T12:51:24;16.20;99.90
12893;DHT22;6514;48.606;9.222;2023-04-15T12:53:51;16.10;99.90
12893;DHT22;6514;48.606;9.222;2023-04-15T12:56:20;16.00;99.90
12893;DHT22;6514;48.606;9.222;2023-04-15T12:58:47;16.00;99.90
12893;DHT22;6514;48.606;9.222;2023-04-15T13:01:13;16.10;99.90
12893;DHT22;6514;48.606;9.222;2023-04-15T13:03:40;16.20;99.90
12893;DHT22;6514;48.606;9.222;2023-04-15T13:06:07;15.60;99.90
12893;DHT22;6514;48.606;9.222;2023-04-15T13:08:34;14.70;99.90
12893;DHT22;6514;48.606;9.222;2023-04-15T13:11:02;14.00;99.90
12893;DHT22;6514;48.606;9.222;2023-04-15T13:13:31;13.50;99.90
12893;DHT22;6514;48.606;9.222;2023-04-15T13:15:58;13.20;99.90
12893;DHT22;6514;48.606;9.222;2023-04-15T13:18:25;12.90;99.90
12893;DHT22;6514;48.606;9.222;2023-04-15T13:20:53;12.60;99.90
12893;DHT22;6514;48.606;9.222;2023-04-15T13:23:21;12.20;99.90
12893;DHT22;6514;48.606;9.222;2023-04-15T13:25:47;12.00;99.90
12893;DHT22;6514;48.606;9.222;2023-04-15T13:28:14;12.00;99.90
12893;DHT22;6514;48.606;9.222;2023-04-15T13:30:43;12.20;99.90
12893;DHT22;6514;48.606;9.222;2023-04-15T13:33:11;12.40;99.90
12893;DHT22;6514;48.606;9.222;2023-04-15T13:35:38;12.50;99.90
12893;DHT22;6514;48.606;9.222;2023-04-15T13:38:06;12.50;99.90
12893;DHT22;6514;48.606;9.222;2023-04-15T13:40:32;12.50;99.90
12893;DHT22;6514;48.606;9.222;2023-04-15T13:43:00;12.40;99.90
12893;DHT22;6514;48.606;9.222;2023-04-15T13:45:28;12.30;99.90
12893;DHT22;6514;48.606;9.222;2023-04-15T13:47:56;12.30;99.90
12893;DHT22;6514;48.606;9.222;2023-04-15T13:50:23;12.40;99.90
12893;DHT22;6514;48.606;9.222;2023-04-15T13:52:50;12.40;99.90
12893;DHT22;6514;48.606;9.222;2023-04-15T13:55:17;12.50;99.90
12893;DHT22;6514;48.606;9.222;2023-04-15T13:57:44;12.70;99.90
12893;DHT22;6514;48.606;9.222;2023-04-15T14:00:12;12.90;99.90
12893;DHT22;6514;48.606;9.222;2023-04-15T14:02:39;13.10;99.90
12893;DHT22;6514;48.606;9.222;2023-04-15T14:05:09;13.10;99.90
12893;DHT22;6514;48.606;9.222;2023-04-15T14:07:36;13.10;99.90
12893;DHT22;6514;48.606;9.222;2023-04-15T14:10:03;13.00;99.90
12893;DHT22;6514;48.606;9.222;2023-04-15T14:12:30;12.90;99.90
12893;DHT22;6514;48.606;9.222;2023-04-15T14:14:57;12.70;99.90
12893;DHT22;6514;48.606;9.222;2023-04-15T14:17:24;12.70;99.90
12893;DHT22;6514;48.606;9.222;2023-04-15T14:19:51;12.60;99.90
12893;DHT22;6514;48.606;9.222;2023-04-15T14:22:19;12.70;99.90
12893;DHT22;6514;48.606;9.222;2023-04-15T14:24:46;12.90;99.90
12893;DHT22;6514;48.606;9.222;2023-04-15T14:27:14;13.00;99.90
12893;DHT22;6514;48.606;9.222;2023-04-15T14:29:41;13.00;99.90
12893;DHT22;6514;48.606;9.222;2023-04-15T14:32:08;13.00;99.90
12893;DHT22;6514;48.606;9.222;2023-04-15T14:34:34;13.10;99.90
12893;DHT22;6514;48.606;9.222;2023-04-15T14:37:02;13.00;99.90
12893;DHT22;6514;48.606;9.222;2023-04-15T14:39:30;12.90;99.90
12893;DHT22;6514;48.606;9.222;2023-04-15T14:41:57;12.70;99.90
12893;DHT22;6514;48.606;9.222;2023-04-15T14:44:24;12.50;99.90
12893;DHT22;6514;48.606;9.222;2023-04-15T14:46:51;12.30;99.90
12893;DHT22;6514;48.606;9.222;2023-04-15T14:49:19;12.20;99.90
12893;DHT22;6514;48.606;9.222;2023-04-15T14:51:46;12.10;99.90
12893;DHT22;6514;48.606;9.222;2023-04-15T14:54:13;12.10;99.90
12893;DHT22;6514;48.606;9.222;2023-04-15T14:56:41;12.00;99.90
12893;DHT22;6514;48.606;9.222;2023-04-15T14:59:08;12.00;99.90
12893;DHT22;6514;48.606;9.222;2023-04-15T15:01:35;12.00;99.90
12893;DHT22;6514;48.606;9.222;2023-04-15T15:04:02;12.00;99.90
12893;DHT22;6514;48.606;9.222;2023-04-15T15:06:30;12.00;99.90
12893;DHT22;6514;48.606;9.222;2023-04-15T15:08:57;11.90;99.90
12893;DHT22;6514;48.606;9.222;2023-04-15T15:11:24;11.90;99.90
12893;DHT22;6514;48.606;9.222;2023-04-15T15:13:53;11.90;99.90
12893;DHT22;6514;48.606;9.222;2023-04-15T15:16:20;11.80;99.90
12893;DHT22;6514;48.606;9.222;2023-04-15T15:18:47;11.80;99.90
12893;DHT22;6514;48.606;9.222;2023-04-15T15:21:14;11.70;99.90
12893;DHT22;6514;48.606;9.222;2023-04-15T15:23:40;11.60;99.90
12893;DHT22;6514;48.606;9.222;2023-04-15T15:26:07;11.60;99.90
12893;DHT22;6514;48.606;9.222;2023-04-15T15:28:35;11.40;99.90
12893;DHT22;6514;48.606;9.222;2023-04-15T15:31:04;11.40;99.90
12893;DHT22;6514;48.606;9.222;2023-04-15T15:33:31;11.30;99.90
12893;DHT22;6514;48.606;9.222;2023-04-15T15:35:58;11.20;99.90
12893;DHT22;6514;48.606;9.222;2023-04-15T15:38:25;11.10;99.90
12893;DHT22;6514;48.606;9.222;2023-04-15T15:40:52;10.90;99.90
12893;DHT22;6514;48.606;9.222;2023-04-15T15:43:19;10.80;99.90
12893;DHT22;6514;48.606;9.222;2023-04-15T15:45:46;10.70;99.90
12893;DHT22;6514;48.606;9.222;2023-04-15T15:48:17;10.60;99.90
12893;DHT22;6514;48.606;9.222;2023-04-15T15:50:44;10.50;99.90
12893;DHT22;6514;48.606;9.222;2023-04-15T15:53:11;10.50;99.90
12893;DHT22;6514;48.606;9.222;2023-04-15T15:55:42;10.50;99.90
12893;DHT22;6514;48.606;9.222;2023-04-15T15:58:09;10.40;99.90
12893;DHT22;6514;48.606;9.222;2023-04-15T16:00:36;10.40;99.90